createdAt,value
2023-01-30T00:01:07.262Z,17.85
2023-01-30T00:03:35.307Z,18.42
2023-01-30T00:06:02.809Z,16.20
2023-01-30T00:08:30.006Z,18.13
2023-01-30T00:10:58.242Z,17.20
2023-01-30T00:13:25.477Z,17.33
2023-01-30T00:15:52.937Z,17.40
2023-01-30T00:18:20.005Z,17.13
2023-01-30T00:20:47.737Z,17.17
2023-01-30T00:23:15.136Z,18.35
2023-01-30T00:25:46.136Z,16.85
2023-01-30T00:28:13.567Z,17.63
2023-01-30T00:30:42.256Z,18.50
2023-01-30T00:33:16.387Z,16.88
2023-01-30T00:35:49.034Z,17.48
2023-01-30T00:38:17.191Z,18.42
2023-01-30T00:40:45.074Z,16.55
2023-01-30T00:43:33.512Z,16.75
2023-01-30T00:46:21.497Z,15.82
2023-01-30T00:49:07.401Z,16.70
2023-01-30T00:51:35.358Z,15.80
2023-01-30T00:54:02.542Z,16.30
2023-01-30T00:56:32.045Z,16.40
2023-01-30T00:58:59.350Z,17.33
2023-01-30T01:01:45.354Z,17.15
2023-01-30T01:04:13.719Z,16.10
2023-01-30T01:06:41.593Z,16.45
2023-01-30T01:09:08.822Z,16.77
2023-01-30T01:11:36.451Z,18.48
2023-01-30T01:14:05.743Z,16.55
2023-01-30T01:16:34.656Z,15.35
2023-01-30T01:19:02.391Z,14.55
2023-01-30T01:21:29.941Z,14.98
2023-01-30T01:24:00.555Z,14.13
2023-01-30T01:26:28.551Z,14.77
2023-01-30T01:28:57.696Z,13.07
2023-01-30T01:31:25.996Z,14.68
2023-01-30T01:33:56.971Z,12.73
2023-01-30T01:36:51.508Z,14.40
2023-01-30T01:39:13.536Z,12.88
2023-01-30T01:41:41.269Z,14.85
2023-01-30T01:44:11.283Z,14.30
2023-01-30T01:46:51.980Z,13.77
2023-01-30T01:49:30.920Z,13.77
2023-01-30T01:52:27.270Z,13.73
2023-01-30T01:54:59.847Z,26.05
2023-01-30T01:57:34.072Z,16.15
2023-01-30T02:00:13.001Z,15.18
2023-01-30T02:02:43.994Z,15.45
2023-01-30T02:05:14.238Z,15.48
2023-01-30T02:07:48.971Z,14.27
2023-01-30T02:10:23.727Z,14.82
2023-01-30T02:12:54.078Z,13.85
2023-01-30T02:15:22.431Z,14.50
2023-01-30T02:17:50.160Z,15.30
2023-01-30T02:20:36.219Z,14.93
2023-01-30T02:23:22.715Z,15.00
2023-01-30T02:26:26.272Z,16.13
2023-01-30T02:29:32.898Z,15.35
2023-01-30T02:32:20.985Z,15.73
2023-01-30T02:34:59.427Z,14.65
2023-01-30T02:37:45.301Z,13.55
2023-01-30T02:40:25.357Z,13.02
2023-01-30T02:43:05.028Z,14.15
2023-01-30T02:45:35.965Z,14.10
2023-01-30T02:48:07.912Z,14.80
2023-01-30T02:50:39.815Z,14.85
2023-01-30T02:53:09.074Z,14.60
2023-01-30T02:55:40.121Z,15.02
2023-01-30T02:58:09.036Z,14.75
2023-01-30T03:01:06.237Z,16.10
2023-01-30T03:04:07.298Z,13.70
2023-01-30T03:07:10.243Z,14.50
2023-01-30T03:10:17.979Z,15.50
2023-01-30T03:13:00.256Z,14.85
2023-01-30T03:15:38.942Z,14.20
2023-01-30T03:18:07.906Z,14.93
2023-01-30T03:20:42.091Z,16.23
2023-01-30T03:23:09.837Z,15.80
2023-01-30T03:25:40.053Z,15.82
2023-01-30T03:28:09.245Z,16.80
2023-01-30T03:30:37.219Z,16.13
2023-01-30T03:33:09.646Z,17.42
2023-01-30T03:35:40.354Z,17.48
2023-01-30T03:38:10.699Z,17.55
2023-01-30T03:40:38.259Z,17.67
2023-01-30T03:43:05.962Z,19.88
2023-01-30T03:45:36.168Z,18.50
2023-01-30T03:48:03.753Z,17.85
2023-01-30T03:50:31.679Z,18.00
2023-01-30T03:53:00.333Z,16.90
2023-01-30T03:55:27.652Z,17.08
2023-01-30T03:57:57.052Z,16.52
2023-01-30T04:00:27.252Z,18.33
2023-01-30T04:02:57.140Z,17.90
2023-01-30T04:05:25.216Z,18.27
2023-01-30T04:07:59.192Z,16.90
2023-01-30T04:10:27.297Z,17.05
2023-01-30T04:12:54.892Z,17.38
2023-01-30T04:15:24.078Z,17.05
2023-01-30T04:18:10.059Z,17.60
2023-01-30T04:20:58.772Z,16.63
2023-01-30T04:23:33.770Z,18.00
2023-01-30T04:26:01.021Z,17.17
2023-01-30T04:28:28.561Z,18.60
2023-01-30T04:30:55.826Z,17.67
2023-01-30T04:33:41.026Z,17.60
2023-01-30T04:36:10.707Z,16.92
2023-01-30T04:38:38.939Z,16.45
2023-01-30T04:41:08.038Z,17.40
2023-01-30T04:43:39.912Z,15.80
2023-01-30T04:46:46.265Z,16.67
2023-01-30T04:49:15.129Z,16.75
2023-01-30T04:51:43.538Z,15.68
2023-01-30T04:54:10.991Z,15.55
2023-01-30T04:56:42.649Z,17.25
2023-01-30T04:59:10.733Z,17.17
2023-01-30T05:01:42.936Z,16.02
2023-01-30T05:04:29.045Z,16.35
2023-01-30T05:06:56.204Z,15.70
2023-01-30T05:09:23.615Z,21.15
2023-01-30T05:11:50.738Z,17.45
2023-01-30T05:14:18.210Z,15.75
2023-01-30T05:16:45.362Z,17.35
2023-01-30T05:19:13.968Z,15.30
2023-01-30T05:21:41.335Z,15.43
2023-01-30T05:24:09.059Z,16.42
2023-01-30T05:26:36.219Z,16.70
2023-01-30T05:29:03.753Z,16.58
2023-01-30T05:31:30.938Z,16.92
2023-01-30T05:33:58.443Z,18.23
2023-01-30T05:36:25.574Z,16.35
2023-01-30T05:38:53.230Z,18.00
2023-01-30T05:41:20.600Z,28.65
2023-01-30T05:43:51.964Z,37.58
2023-01-30T05:46:20.001Z,18.17
2023-01-30T05:48:48.071Z,15.20
2023-01-30T05:51:26.108Z,16.38
2023-01-30T05:53:53.796Z,20.98
2023-01-30T05:56:21.142Z,14.55
2023-01-30T05:58:56.657Z,22.75
2023-01-30T06:01:26.099Z,19.60
2023-01-30T06:03:54.052Z,19.60
2023-01-30T06:06:22.741Z,17.88
2023-01-30T06:08:57.867Z,14.90
2023-01-30T06:11:26.807Z,15.45
2023-01-30T06:13:54.891Z,14.35
2023-01-30T06:16:23.125Z,15.00
2023-01-30T06:18:51.717Z,13.43
2023-01-30T06:21:19.160Z,15.40
2023-01-30T06:23:46.857Z,15.77
2023-01-30T06:26:15.831Z,18.67
2023-01-30T06:28:47.252Z,16.90
2023-01-30T06:31:17.143Z,16.13
2023-01-30T06:33:45.698Z,12.80
2023-01-30T06:36:14.385Z,16.40
2023-01-30T06:38:43.235Z,13.38
2023-01-30T06:41:11.719Z,14.95
2023-01-30T06:43:44.576Z,13.55
2023-01-30T06:46:12.206Z,12.95
2023-01-30T06:48:39.825Z,13.32
2023-01-30T06:51:08.191Z,19.52
2023-01-30T06:53:44.018Z,14.38
2023-01-30T06:56:12.947Z,20.38
2023-01-30T06:58:57.756Z,17.00
2023-01-30T07:01:28.949Z,20.00
2023-01-30T07:04:00.508Z,13.73
2023-01-30T07:06:30.812Z,13.32
2023-01-30T07:08:59.845Z,13.38
2023-01-30T07:11:28.957Z,13.30
2023-01-30T07:13:59.953Z,14.35
2023-01-30T07:16:30.305Z,13.95
2023-01-30T07:18:59.316Z,14.90
2023-01-30T07:21:29.089Z,12.80
2023-01-30T07:23:56.878Z,12.18
2023-01-30T07:26:25.080Z,14.10
2023-01-30T07:28:52.576Z,13.73
2023-01-30T07:31:19.767Z,13.20
2023-01-30T07:33:47.281Z,14.18
2023-01-30T07:36:20.262Z,13.00
2023-01-30T07:38:50.865Z,12.48
2023-01-30T07:41:24.441Z,12.52
2023-01-30T07:43:56.179Z,14.65
2023-01-30T07:46:26.272Z,14.00
2023-01-30T07:49:23.079Z,14.02
2023-01-30T07:51:54.995Z,14.20
2023-01-30T07:54:28.647Z,16.27
2023-01-30T07:57:09.182Z,16.65
2023-01-30T07:59:38.273Z,15.65
2023-01-30T08:02:09.456Z,15.45
2023-01-30T08:04:47.309Z,13.38
2023-01-30T08:07:26.589Z,16.33
2023-01-30T08:10:12.026Z,13.65
2023-01-30T08:12:41.082Z,11.07
2023-01-30T08:15:11.069Z,11.80
2023-01-30T08:17:40.323Z,13.50
2023-01-30T08:20:09.594Z,12.75
2023-01-30T08:22:37.517Z,13.98
2023-01-30T08:25:08.649Z,16.40
2023-01-30T08:30:35.477Z,14.65
2023-01-30T08:33:06.137Z,11.00
2023-01-30T08:35:47.187Z,11.35
2023-01-30T08:38:14.530Z,10.40
2023-01-30T08:40:48.680Z,13.75
2023-01-30T08:43:28.216Z,13.13
2023-01-30T08:46:04.259Z,14.05
2023-01-30T08:48:49.846Z,12.30
2023-01-30T08:51:19.005Z,11.25
2023-01-30T08:53:50.273Z,12.27
2023-01-30T08:56:39.152Z,11.90
2023-01-30T08:59:11.579Z,12.40
2023-01-30T09:01:45.469Z,13.18
2023-01-30T09:04:13.042Z,15.23
2023-01-30T09:06:41.336Z,13.65
2023-01-30T09:09:08.941Z,13.40
2023-01-30T09:11:37.260Z,13.25
2023-01-30T09:14:13.407Z,13.70
2023-01-30T09:16:57.786Z,14.25
2023-01-30T09:19:28.436Z,12.77
2023-01-30T09:21:56.388Z,14.43
2023-01-30T09:24:26.779Z,13.32
2023-01-30T09:27:02.763Z,13.52
2023-01-30T09:29:37.179Z,13.13
2023-01-30T09:32:14.043Z,12.20
2023-01-30T09:34:52.834Z,11.90
2023-01-30T09:37:23.599Z,14.40
2023-01-30T09:40:11.799Z,12.40
2023-01-30T09:43:25.400Z,16.85
2023-01-30T09:46:43.955Z,13.73
2023-01-30T09:49:28.978Z,11.00
2023-01-30T09:52:18.853Z,10.60
2023-01-30T09:54:46.633Z,11.48
2023-01-30T09:57:22.557Z,12.43
2023-01-30T10:00:01.930Z,12.50
2023-01-30T10:02:58.870Z,11.07
2023-01-30T10:05:44.298Z,9.55
2023-01-30T10:08:36.296Z,10.43
2023-01-30T10:11:41.355Z,10.32
2023-01-30T10:14:43.969Z,10.20
2023-01-30T10:17:57.988Z,10.65
2023-01-30T10:20:53.904Z,10.73
2023-01-30T10:23:50.701Z,12.32
2023-01-30T10:26:32.578Z,11.50
2023-01-30T10:29:26.329Z,12.30
2023-01-30T10:32:10.238Z,13.50
2023-01-30T10:34:56.445Z,11.13
2023-01-30T10:37:42.505Z,16.23
2023-01-30T10:40:26.921Z,15.88
2023-01-30T10:43:26.071Z,16.52
2023-01-30T10:46:24.673Z,18.48
2023-01-30T10:49:16.720Z,21.92
2023-01-30T10:52:25.138Z,14.93
2023-01-30T10:55:10.909Z,12.20
2023-01-30T10:57:55.264Z,20.98
2023-01-30T11:01:07.881Z,14.68
2023-01-30T11:03:46.952Z,17.63
2023-01-30T11:06:19.123Z,13.23
2023-01-30T11:08:46.432Z,12.88
2023-01-30T11:11:27.557Z,13.43
2023-01-30T11:14:09.476Z,13.10
2023-01-30T11:16:53.399Z,15.45
2023-01-30T11:19:24.949Z,20.60
2023-01-30T11:22:00.094Z,21.35
2023-01-30T11:24:46.672Z,65.65
2023-01-30T11:27:33.659Z,26.15
2023-01-30T11:30:18.292Z,32.83
2023-01-30T11:32:53.460Z,15.82
2023-01-30T11:38:13.018Z,31.40
2023-01-30T11:40:43.831Z,15.43
2023-01-30T11:43:21.648Z,16.95
2023-01-30T11:45:51.573Z,17.60
2023-01-30T11:49:35.664Z,15.25
2023-01-30T11:51:58.635Z,15.18
2023-01-30T11:54:34.865Z,15.93
2023-01-30T11:57:11.407Z,15.35
2023-01-30T11:59:59.684Z,15.57
2023-01-30T12:02:48.711Z,18.55
2023-01-30T12:05:31.357Z,36.25
2023-01-30T12:08:57.052Z,22.80
2023-01-30T12:14:45.885Z,23.05
2023-01-30T12:20:26.850Z,37.13
2023-01-30T12:26:01.119Z,15.13
2023-01-30T12:29:01.707Z,13.85
2023-01-30T12:31:39.145Z,14.80
2023-01-30T12:34:09.822Z,17.40
2023-01-30T12:37:16.076Z,120.75
2023-01-30T12:39:43.972Z,17.77
2023-01-30T12:42:23.814Z,19.88
2023-01-30T12:45:11.953Z,16.75
2023-01-30T12:48:17.236Z,22.70
2023-01-30T12:50:58.787Z,19.27
2023-01-30T12:54:28.512Z,20.23
2023-01-30T12:57:12.924Z,20.02
2023-01-30T12:59:45.566Z,21.10
2023-01-30T13:02:44.531Z,21.90
2023-01-30T13:05:35.127Z,19.58
2023-01-30T13:08:33.725Z,23.38
2023-01-30T13:11:32.467Z,29.33
2023-01-30T13:14:06.228Z,39.13
2023-01-30T13:17:20.501Z,24.30
2023-01-30T13:20:22.535Z,38.55
2023-01-30T13:23:06.458Z,38.00
2023-01-30T13:25:43.958Z,37.55
2023-01-30T13:28:26.072Z,27.75
2023-01-30T13:31:00.319Z,24.20
2023-01-30T13:33:42.523Z,26.85
2023-01-30T13:36:37.309Z,26.67
2023-01-30T13:39:32.162Z,26.08
2023-01-30T13:42:26.679Z,22.55
2023-01-30T13:44:58.781Z,20.70
2023-01-30T13:47:26.325Z,29.58
2023-01-30T13:50:36.378Z,26.00
2023-01-30T13:54:03.693Z,21.88
2023-01-30T13:56:49.172Z,20.83
2023-01-30T14:00:12.810Z,30.70
2023-01-30T14:03:07.427Z,23.73
2023-01-30T14:06:15.474Z,28.52
2023-01-30T14:08:45.290Z,23.33
2023-01-30T14:11:35.432Z,24.60
2023-01-30T14:14:42.079Z,23.33
2023-01-30T14:17:16.243Z,19.67
2023-01-30T14:20:21.744Z,22.02
2023-01-30T14:23:06.497Z,25.85
2023-01-30T14:25:44.547Z,23.50
2023-01-30T14:28:20.488Z,29.70
2023-01-30T14:31:05.385Z,28.50
2023-01-30T14:33:47.860Z,26.40
2023-01-30T14:36:21.073Z,25.83
2023-01-30T14:39:17.337Z,23.80
2023-01-30T14:42:07.393Z,25.95
2023-01-30T14:45:00.138Z,26.13
2023-01-30T14:47:47.132Z,26.75
2023-01-30T14:50:24.795Z,48.75
2023-01-30T14:52:56.600Z,30.27
2023-01-30T14:55:29.823Z,32.45
2023-01-30T14:58:06.428Z,25.30
2023-01-30T15:00:38.505Z,28.13
2023-01-30T15:03:37.742Z,39.00
2023-01-30T15:06:38.743Z,43.25
2023-01-30T15:09:20.294Z,51.83
2023-01-30T15:12:03.844Z,39.80
2023-01-30T15:14:53.941Z,33.47
2023-01-30T15:17:52.721Z,43.72
2023-01-30T15:20:39.377Z,30.63
2023-01-30T15:23:44.606Z,34.90
2023-01-30T15:26:49.849Z,40.05
2023-01-30T15:29:58.310Z,39.15
2023-01-30T15:32:29.623Z,49.38
2023-01-30T15:35:24.761Z,40.13
2023-01-30T15:37:57.433Z,60.85
2023-01-30T15:40:29.916Z,40.65
2023-01-30T15:43:23.126Z,42.00
2023-01-30T15:46:23.892Z,42.28
2023-01-30T15:49:01.457Z,49.25
2023-01-30T15:51:42.703Z,43.50
2023-01-30T15:54:17.034Z,46.03
2023-01-30T15:59:45.603Z,40.08
2023-01-30T16:02:28.533Z,47.00
2023-01-30T16:05:18.432Z,45.60
2023-01-30T16:07:48.588Z,48.35
2023-01-30T16:10:22.278Z,48.80
2023-01-30T16:12:54.731Z,49.00
2023-01-30T16:16:02.609Z,48.75
2023-01-30T16:18:47.596Z,48.88
2023-01-30T16:21:41.318Z,53.97
2023-01-30T16:24:26.161Z,57.10
2023-01-30T16:27:31.606Z,135.93
2023-01-30T16:32:53.472Z,159.55
2023-01-30T16:35:34.045Z,170.97
2023-01-30T16:38:05.815Z,127.82
2023-01-30T16:41:27.248Z,107.45
2023-01-30T16:44:29.010Z,168.77
2023-01-30T16:47:42.714Z,72.50
2023-01-30T16:50:25.851Z,261.70
2023-01-30T16:55:27.773Z,322.08
2023-01-30T16:58:10.125Z,334.58
2023-01-30T17:00:41.202Z,150.90
2023-01-30T17:03:39.428Z,195.32
2023-01-30T17:06:27.380Z,102.32
2023-01-30T17:08:58.875Z,74.65
2023-01-30T17:14:38.206Z,81.47
2023-01-30T17:17:19.405Z,77.70
2023-01-30T17:20:05.599Z,78.22
2023-01-30T17:27:20.906Z,62.05
2023-01-30T17:30:48.735Z,65.40
2023-01-30T17:33:47.335Z,56.65
2023-01-30T17:36:41.228Z,59.03
2023-01-30T17:42:34.770Z,52.42
2023-01-30T17:47:23.181Z,57.35
2023-01-30T17:50:30.363Z,50.35
2023-01-30T18:01:46.375Z,67.47
2023-01-30T18:04:23.904Z,65.35
2023-01-30T18:11:04.145Z,68.85
2023-01-30T18:14:08.399Z,73.50
2023-01-30T18:20:34.873Z,83.93
2023-01-30T18:23:52.692Z,83.20
2023-01-30T18:31:17.840Z,78.50
2023-01-30T18:50:15.806Z,64.85
2023-01-30T18:53:43.268Z,55.00
2023-01-30T18:57:10.517Z,61.30
2023-01-30T19:00:10.228Z,61.15
2023-01-30T19:07:02.949Z,59.92
2023-01-30T19:10:53.411Z,61.80
2023-01-30T19:14:13.128Z,62.28
2023-01-30T19:17:21.143Z,62.65
2023-01-30T19:20:31.407Z,64.78
2023-01-30T19:27:19.738Z,63.35
2023-01-30T19:29:53.857Z,73.20
2023-01-30T19:32:34.163Z,85.13
2023-01-30T19:38:04.187Z,70.05
2023-01-30T19:41:13.592Z,82.10
2023-01-30T19:44:25.592Z,71.45
2023-01-30T19:47:27.119Z,70.03
2023-01-30T19:50:23.430Z,66.95
2023-01-30T19:53:10.251Z,67.50
2023-01-30T19:55:59.346Z,87.97
2023-01-30T19:58:48.204Z,89.18
2023-01-30T20:08:37.360Z,101.05
2023-01-30T20:11:37.420Z,372.13
2023-01-30T20:14:51.267Z,169.32
2023-01-30T20:18:14.987Z,508.20
2023-01-30T20:21:19.150Z,115.65
2023-01-30T20:24:28.538Z,84.43
2023-01-30T20:27:18.663Z,93.15
2023-01-30T20:30:20.312Z,342.20
2023-01-30T20:33:09.409Z,167.07
2023-01-30T20:36:47.834Z,87.45
2023-01-30T20:39:22.281Z,84.47
2023-01-30T20:41:56.177Z,93.55
2023-01-30T20:44:28.616Z,88.78
2023-01-30T20:46:57.889Z,99.22
2023-01-30T20:49:41.182Z,107.85
2023-01-30T20:52:24.538Z,102.40
2023-01-30T20:55:02.604Z,106.00
2023-01-30T20:57:38.705Z,108.13
2023-01-30T21:00:23.490Z,107.93
2023-01-30T21:03:51.122Z,93.65
2023-01-30T21:10:02.905Z,81.00
2023-01-30T21:12:41.175Z,87.82
2023-01-30T21:15:20.386Z,90.93
2023-01-30T21:17:57.912Z,91.15
2023-01-30T21:20:36.925Z,86.18
2023-01-30T21:23:35.682Z,88.45
2023-01-30T21:26:19.963Z,84.10
2023-01-30T21:29:03.174Z,86.32
2023-01-30T21:31:51.526Z,82.95
2023-01-30T21:34:51.790Z,79.47
2023-01-30T21:37:43.358Z,81.15
2023-01-30T21:44:00.438Z,82.38
2023-01-30T21:47:24.789Z,68.05
2023-01-30T21:50:08.383Z,60.67
2023-01-30T21:53:06.906Z,57.83
2023-01-30T21:56:14.109Z,55.30
2023-01-30T21:59:18.199Z,46.92
2023-01-30T22:02:27.868Z,46.47
2023-01-30T22:05:33.343Z,46.83
2023-01-30T22:08:21.592Z,45.85
2023-01-30T22:11:39.863Z,51.15
2023-01-30T22:14:18.791Z,44.03
2023-01-30T22:17:08.083Z,42.05
2023-01-30T22:19:43.482Z,44.25
2023-01-30T22:22:24.936Z,42.13
2023-01-30T22:24:57.187Z,43.72
2023-01-30T22:27:26.487Z,44.28
2023-01-30T22:30:00.233Z,43.22
2023-01-30T22:32:46.392Z,40.17
2023-01-30T22:35:22.174Z,43.17
2023-01-30T22:38:01.831Z,44.17
2023-01-30T22:40:30.038Z,45.05
2023-01-30T22:43:04.897Z,42.92
2023-01-30T22:46:07.133Z,43.58
2023-01-30T22:48:39.432Z,41.70
2023-01-30T22:51:11.474Z,44.50
2023-01-30T22:53:48.881Z,45.47
2023-01-30T22:56:18.495Z,43.28
2023-01-30T22:58:47.047Z,43.08
2023-01-30T23:01:21.499Z,44.33
2023-01-30T23:04:15.316Z,43.95
2023-01-30T23:06:43.670Z,47.65
2023-01-30T23:09:42.585Z,43.72
2023-01-30T23:12:31.598Z,42.20
2023-01-30T23:15:03.069Z,44.30
2023-01-30T23:17:50.623Z,44.33
2023-01-30T23:20:48.704Z,44.78
2023-01-30T23:23:17.460Z,43.90
2023-01-30T23:25:45.063Z,47.25
2023-01-30T23:28:12.533Z,45.63
2023-01-30T23:30:40.615Z,45.22
2023-01-30T23:33:08.065Z,45.80
2023-01-30T23:35:40.262Z,47.50
2023-01-30T23:38:16.417Z,46.03
2023-01-30T23:40:45.166Z,44.55
2023-01-30T23:43:17.852Z,46.75
2023-01-30T23:45:45.549Z,44.38
2023-01-30T23:48:12.882Z,44.95
2023-01-30T23:50:43.213Z,48.10
2023-01-30T23:53:15.180Z,48.60
2023-01-30T23:55:53.398Z,42.28
2023-01-30T23:58:22.230Z,45.42
